createdAt,value
2023-02-19T00:00:28.990Z,104.00
2023-02-19T00:01:32.091Z,104.00
2023-02-19T00:02:35.444Z,117.50
2023-02-19T00:04:10.331Z,117.80
2023-02-19T00:05:13.869Z,101.00
2023-02-19T00:06:16.986Z,118.00
2023-02-19T00:07:52.096Z,101.90
2023-02-19T00:08:55.123Z,102.10
2023-02-19T00:09:58.143Z,116.30
2023-02-19T00:11:33.017Z,101.50
2023-02-19T00:12:36.305Z,117.60
2023-02-19T00:13:39.482Z,98.70
2023-02-19T00:15:14.780Z,101.60
2023-02-19T00:16:17.935Z,117.70
2023-02-19T00:17:20.840Z,115.80
2023-02-19T00:18:55.471Z,116.50
2023-02-19T00:19:58.688Z,102.70
2023-02-19T00:21:01.806Z,101.80
2023-02-19T00:22:37.133Z,102.20
2023-02-19T00:23:40.122Z,103.20
2023-02-19T00:24:43.191Z,103.10
2023-02-19T00:26:35.625Z,100.90
2023-02-19T00:27:38.870Z,101.00
2023-02-19T00:28:42.194Z,101.10
2023-02-19T00:30:17.491Z,106.30
2023-02-19T00:31:21.635Z,116.70
2023-02-19T00:32:25.793Z,100.90
2023-02-19T00:34:00.662Z,101.60
2023-02-19T00:35:03.545Z,117.20
2023-02-19T00:36:06.480Z,116.50
2023-02-19T00:37:41.345Z,101.80
2023-02-19T00:38:44.392Z,102.90
2023-02-19T00:39:47.493Z,100.30
2023-02-19T00:41:22.828Z,101.70
2023-02-19T00:42:25.765Z,102.30
2023-02-19T00:43:28.785Z,102.00
2023-02-19T00:45:03.717Z,117.50
2023-02-19T00:46:06.666Z,101.70
2023-02-19T00:47:09.926Z,102.70
2023-02-19T00:48:44.992Z,103.60
2023-02-19T00:49:47.942Z,116.40
2023-02-19T00:50:50.900Z,103.10
2023-02-19T00:52:25.654Z,116.80
2023-02-19T00:53:28.820Z,117.40
2023-02-19T00:54:31.828Z,102.50
2023-02-19T00:56:06.781Z,115.70
2023-02-19T00:57:09.654Z,117.00
2023-02-19T00:58:12.814Z,102.20
2023-02-19T00:59:47.892Z,114.90
2023-02-19T01:00:29.686Z,114.90
2023-02-19T01:01:33.274Z,101.70
2023-02-19T01:02:37.018Z,119.30
2023-02-19T01:04:12.635Z,103.30
2023-02-19T01:05:15.990Z,116.80
2023-02-19T01:06:19.079Z,117.40
2023-02-19T01:07:54.213Z,101.60
2023-02-19T01:08:57.303Z,116.70
2023-02-19T01:10:00.183Z,101.20
2023-02-19T01:11:34.959Z,116.70
2023-02-19T01:12:37.829Z,117.50
2023-02-19T01:13:41.008Z,117.80
2023-02-19T01:15:16.158Z,103.40
2023-02-19T01:16:19.500Z,116.60
2023-02-19T01:17:22.831Z,101.40
2023-02-19T01:18:57.940Z,103.20
2023-02-19T01:20:00.988Z,103.80
2023-02-19T01:21:04.085Z,118.30
2023-02-19T01:22:39.582Z,101.10
2023-02-19T01:23:42.673Z,118.80
2023-02-19T01:24:45.514Z,103.90
2023-02-19T01:26:20.601Z,118.60
2023-02-19T01:27:23.617Z,104.80
2023-02-19T01:28:26.718Z,99.40
2023-02-19T01:30:01.672Z,115.10
2023-02-19T01:31:04.869Z,104.80
2023-02-19T01:32:09.072Z,102.00
2023-02-19T01:33:44.534Z,116.80
2023-02-19T01:34:47.866Z,100.40
2023-02-19T01:35:51.018Z,116.80
2023-02-19T01:37:26.196Z,118.00
2023-02-19T01:38:29.464Z,117.40
2023-02-19T01:39:32.740Z,115.60
2023-02-19T01:41:08.233Z,118.80
2023-02-19T01:42:11.446Z,116.90
2023-02-19T01:43:14.357Z,117.70
2023-02-19T01:44:49.569Z,116.40
2023-02-19T01:45:52.732Z,102.90
2023-02-19T01:46:56.092Z,101.40
2023-02-19T01:48:31.063Z,100.90
2023-02-19T01:49:34.028Z,101.80
2023-02-19T01:50:37.418Z,118.10
2023-02-19T01:52:12.986Z,101.80
2023-02-19T01:53:16.245Z,103.10
2023-02-19T01:54:19.180Z,100.00
2023-02-19T01:55:54.391Z,117.60
2023-02-19T01:56:57.441Z,116.70
2023-02-19T01:58:00.413Z,117.00
2023-02-19T01:59:35.498Z,100.40
2023-02-19T02:00:29.101Z,118.60
2023-02-19T02:01:32.589Z,100.40
2023-02-19T02:02:35.868Z,117.30
2023-02-19T02:04:10.696Z,100.80
2023-02-19T02:05:13.754Z,117.00
2023-02-19T02:06:16.692Z,101.30
2023-02-19T02:07:51.894Z,103.40
2023-02-19T02:08:54.860Z,103.30
2023-02-19T02:09:57.967Z,100.10
2023-02-19T02:11:33.026Z,115.00
2023-02-19T02:12:36.181Z,117.20
2023-02-19T02:13:39.202Z,118.10
2023-02-19T02:15:14.158Z,117.40
2023-02-19T02:16:17.322Z,116.80
2023-02-19T02:17:20.604Z,101.30
2023-02-19T02:18:55.456Z,100.80
2023-02-19T02:19:58.535Z,101.70
2023-02-19T02:21:01.477Z,116.70
2023-02-19T02:22:37.041Z,117.60
2023-02-19T02:23:40.615Z,116.60
2023-02-19T02:24:43.743Z,116.50
2023-02-19T02:26:18.880Z,116.10
2023-02-19T02:27:21.748Z,104.00
2023-02-19T02:28:25.143Z,103.60
2023-02-19T02:30:00.315Z,101.20
2023-02-19T02:31:03.749Z,102.20
2023-02-19T02:32:08.594Z,101.00
2023-02-19T02:33:43.996Z,101.70
2023-02-19T02:34:47.027Z,100.60
2023-02-19T02:35:50.199Z,100.50
2023-02-19T02:37:25.031Z,102.20
2023-02-19T02:38:28.104Z,118.60
2023-02-19T02:39:30.953Z,113.90
2023-02-19T02:41:06.023Z,99.50
2023-02-19T02:42:09.669Z,101.40
2023-02-19T02:43:12.644Z,101.50
2023-02-19T02:44:47.988Z,115.50
2023-02-19T02:45:51.511Z,117.00
2023-02-19T02:46:54.905Z,103.50
2023-02-19T02:48:29.781Z,116.60
2023-02-19T02:49:32.760Z,115.40
2023-02-19T02:50:35.887Z,115.60
2023-02-19T02:52:10.944Z,115.30
2023-02-19T02:53:14.070Z,119.50
2023-02-19T02:54:17.064Z,117.20
2023-02-19T02:55:54.744Z,115.70
2023-02-19T02:56:57.874Z,103.90
2023-02-19T02:58:01.156Z,117.20
2023-02-19T02:59:36.408Z,115.60
2023-02-19T03:00:28.732Z,118.70
2023-02-19T03:01:32.121Z,103.20
2023-02-19T03:02:35.492Z,117.30
2023-02-19T03:04:10.538Z,102.70
2023-02-19T03:05:13.518Z,102.50
2023-02-19T03:06:16.494Z,103.90
2023-02-19T03:07:51.450Z,102.60
2023-02-19T03:08:54.588Z,103.40
2023-02-19T03:10:00.784Z,103.90
2023-02-19T03:11:35.636Z,116.50
2023-02-19T03:12:38.599Z,117.10
2023-02-19T03:13:41.588Z,104.00
2023-02-19T03:15:16.664Z,114.20
2023-02-19T03:16:19.862Z,104.40
2023-02-19T03:17:23.189Z,117.00
2023-02-19T03:18:58.386Z,105.50
2023-02-19T03:20:01.588Z,117.70
2023-02-19T03:21:04.579Z,118.00
2023-02-19T03:22:39.944Z,117.10
2023-02-19T03:23:43.041Z,116.00
2023-02-19T03:24:46.299Z,116.70
2023-02-19T03:26:21.220Z,100.40
2023-02-19T03:27:24.326Z,102.70
2023-02-19T03:28:27.249Z,103.30
2023-02-19T03:30:02.151Z,101.10
2023-02-19T03:31:05.855Z,116.70
2023-02-19T03:32:10.479Z,101.00
2023-02-19T03:33:45.741Z,103.80
2023-02-19T03:34:49.043Z,102.60
2023-02-19T03:35:51.996Z,117.70
2023-02-19T03:37:27.139Z,102.30
2023-02-19T03:38:30.259Z,106.40
2023-02-19T03:39:33.320Z,102.90
2023-02-19T03:41:08.522Z,118.90
2023-02-19T03:42:11.707Z,117.90
2023-02-19T03:43:14.636Z,105.90
2023-02-19T03:44:49.600Z,101.40
2023-02-19T03:45:52.944Z,103.80
2023-02-19T03:46:56.068Z,105.20
2023-02-19T03:48:31.361Z,104.20
2023-02-19T03:49:34.416Z,117.10
2023-02-19T03:50:40.810Z,103.80
2023-02-19T03:52:16.082Z,103.30
2023-02-19T03:53:19.096Z,102.30
2023-02-19T03:54:22.221Z,119.30
2023-02-19T03:55:57.417Z,117.80
2023-02-19T03:57:00.292Z,116.00
2023-02-19T03:58:03.653Z,104.60
2023-02-19T03:59:38.357Z,103.10
2023-02-19T04:00:29.285Z,101.40
2023-02-19T04:01:32.623Z,118.70
2023-02-19T04:02:35.921Z,117.00
2023-02-19T04:04:10.983Z,103.80
2023-02-19T04:05:14.661Z,104.90
2023-02-19T04:06:17.708Z,116.70
2023-02-19T04:07:52.969Z,103.50
2023-02-19T04:08:55.866Z,118.40
2023-02-19T04:09:58.913Z,104.20
2023-02-19T04:11:34.145Z,116.90
2023-02-19T04:12:37.257Z,102.40
2023-02-19T04:13:40.134Z,118.00
2023-02-19T04:15:14.985Z,116.10
2023-02-19T04:16:18.101Z,103.60
2023-02-19T04:17:21.253Z,118.30
2023-02-19T04:18:56.186Z,118.10
2023-02-19T04:19:59.094Z,117.20
2023-02-19T04:21:02.283Z,118.00
2023-02-19T04:22:37.549Z,103.00
2023-02-19T04:23:40.603Z,118.60
2023-02-19T04:24:43.654Z,102.60
2023-02-19T04:26:18.732Z,104.20
2023-02-19T04:27:21.822Z,118.40
2023-02-19T04:28:25.072Z,105.00
2023-02-19T04:30:00.330Z,103.60
2023-02-19T04:31:03.796Z,117.40
2023-02-19T04:32:07.814Z,118.50
2023-02-19T04:33:42.886Z,104.60
2023-02-19T04:34:45.926Z,116.30
2023-02-19T04:35:51.581Z,119.40
2023-02-19T04:37:27.054Z,104.40
2023-02-19T04:38:30.326Z,103.70
2023-02-19T04:39:33.651Z,103.80
2023-02-19T04:41:09.057Z,117.70
2023-02-19T04:42:12.420Z,103.90
2023-02-19T04:43:15.465Z,118.40
2023-02-19T04:44:50.684Z,117.40
2023-02-19T04:45:53.796Z,104.10
2023-02-19T04:46:59.923Z,104.30
2023-02-19T04:48:34.965Z,118.60
2023-02-19T04:49:37.906Z,103.00
2023-02-19T04:50:41.043Z,104.20
2023-02-19T04:52:16.501Z,104.60
2023-02-19T04:53:19.719Z,104.60
2023-02-19T04:54:22.623Z,118.90
2023-02-19T04:55:57.715Z,106.30
2023-02-19T04:57:00.801Z,104.10
2023-02-19T04:58:03.984Z,103.20
2023-02-19T04:59:39.034Z,120.70
2023-02-19T05:00:29.211Z,105.80
2023-02-19T05:01:32.786Z,119.30
2023-02-19T05:02:36.009Z,106.90
2023-02-19T05:04:11.370Z,119.60
2023-02-19T05:05:59.394Z,121.00
2023-02-19T05:07:02.650Z,118.10
2023-02-19T05:08:05.618Z,119.90
2023-02-19T05:09:40.752Z,105.00
2023-02-19T05:10:43.742Z,121.10
2023-02-19T05:11:46.805Z,120.40
2023-02-19T05:13:21.952Z,121.10
2023-02-19T05:14:25.421Z,106.70
2023-02-19T05:15:28.459Z,120.80
2023-02-19T05:17:03.844Z,106.20
2023-02-19T05:18:06.892Z,104.90
2023-02-19T05:19:09.854Z,120.50
2023-02-19T05:20:45.003Z,119.80
2023-02-19T05:21:48.040Z,118.90
2023-02-19T05:22:50.999Z,121.20
2023-02-19T05:24:25.690Z,106.00
2023-02-19T05:25:28.991Z,119.60
2023-02-19T05:26:31.917Z,121.80
2023-02-19T05:28:09.361Z,121.10
2023-02-19T05:29:12.333Z,106.30
2023-02-19T05:30:15.490Z,106.10
2023-02-19T05:31:51.529Z,107.10
2023-02-19T05:32:55.089Z,121.10
2023-02-19T05:33:58.261Z,106.20
2023-02-19T05:35:33.273Z,122.00
2023-02-19T05:36:36.530Z,122.70
2023-02-19T05:37:39.363Z,110.30
2023-02-19T05:39:14.544Z,107.10
2023-02-19T05:40:17.599Z,107.30
2023-02-19T05:41:21.303Z,120.70
2023-02-19T05:42:56.396Z,107.30
2023-02-19T05:43:59.273Z,123.40
2023-02-19T05:45:02.421Z,108.30
2023-02-19T05:46:37.711Z,109.00
2023-02-19T05:47:40.914Z,122.40
2023-02-19T05:48:43.928Z,122.90
2023-02-19T05:50:18.715Z,110.40
2023-02-19T05:51:22.050Z,122.30
2023-02-19T05:52:25.090Z,122.70
2023-02-19T05:54:00.013Z,107.80
2023-02-19T05:55:03.232Z,122.90
2023-02-19T05:56:06.431Z,109.60
2023-02-19T05:57:43.544Z,122.80
2023-02-19T05:58:46.718Z,110.20
2023-02-19T05:59:49.859Z,110.50
2023-02-19T06:00:28.952Z,110.50
2023-02-19T06:01:32.009Z,123.10
2023-02-19T06:02:35.349Z,108.10
2023-02-19T06:04:14.270Z,109.30
2023-02-19T06:05:17.303Z,123.00
2023-02-19T06:06:20.380Z,111.20
2023-02-19T06:07:55.544Z,111.20
2023-02-19T06:08:58.529Z,122.90
2023-02-19T06:10:01.350Z,125.00
2023-02-19T06:11:36.352Z,111.30
2023-02-19T06:12:39.518Z,123.00
2023-02-19T06:13:42.422Z,111.80
2023-02-19T06:15:17.362Z,124.40
2023-02-19T06:16:20.467Z,121.90
2023-02-19T06:17:23.858Z,110.70
2023-02-19T06:18:58.675Z,111.70
2023-02-19T06:20:01.800Z,109.80
2023-02-19T06:21:04.743Z,124.10
2023-02-19T06:22:40.313Z,123.50
2023-02-19T06:23:43.370Z,123.90
2023-02-19T06:24:46.195Z,111.10
2023-02-19T06:26:21.396Z,123.10
2023-02-19T06:27:24.317Z,111.70
2023-02-19T06:28:27.345Z,126.00
2023-02-19T06:30:02.128Z,111.50
2023-02-19T06:31:08.515Z,127.90
2023-02-19T06:32:13.310Z,113.80
2023-02-19T06:33:48.652Z,127.20
2023-02-19T06:34:51.928Z,126.40
2023-02-19T06:35:54.915Z,114.10
2023-02-19T06:37:29.951Z,113.00
2023-02-19T06:38:33.174Z,113.00
2023-02-19T06:39:36.148Z,114.30
2023-02-19T06:41:11.287Z,113.80
2023-02-19T06:42:14.296Z,114.10
2023-02-19T06:43:17.290Z,128.90
2023-02-19T06:44:52.123Z,126.50
2023-02-19T06:45:55.145Z,127.20
2023-02-19T06:46:58.524Z,114.10
2023-02-19T06:48:33.892Z,113.70
2023-02-19T06:49:37.052Z,126.60
2023-02-19T06:50:40.138Z,115.80
2023-02-19T06:52:15.491Z,115.20
2023-02-19T06:53:18.316Z,127.50
2023-02-19T06:54:21.465Z,127.00
2023-02-19T06:55:56.802Z,127.40
2023-02-19T06:57:03.731Z,126.70
2023-02-19T06:58:06.664Z,129.10
2023-02-19T06:59:41.869Z,127.60
2023-02-19T07:00:29.599Z,128.10
2023-02-19T07:01:32.754Z,128.10
2023-02-19T07:02:35.688Z,126.60
2023-02-19T07:04:10.914Z,128.40
2023-02-19T07:05:14.190Z,127.00
2023-02-19T07:06:17.119Z,127.40
2023-02-19T07:07:52.345Z,128.40
2023-02-19T07:08:55.232Z,128.40
2023-02-19T07:09:58.453Z,127.60
2023-02-19T07:11:33.320Z,128.40
2023-02-19T07:12:36.529Z,117.40
2023-02-19T07:13:39.600Z,114.30
2023-02-19T07:15:14.384Z,128.70
2023-02-19T07:16:17.791Z,130.30
2023-02-19T07:17:21.225Z,128.50
2023-02-19T07:18:56.156Z,129.00
2023-02-19T07:19:59.401Z,119.20
2023-02-19T07:21:02.371Z,130.80
2023-02-19T07:22:37.853Z,130.70
2023-02-19T07:23:40.848Z,118.50
2023-02-19T07:24:43.713Z,118.00
2023-02-19T07:26:18.843Z,117.80
2023-02-19T07:27:21.758Z,118.60
2023-02-19T07:28:24.853Z,129.80
2023-02-19T07:30:00.045Z,119.80
2023-02-19T07:31:03.412Z,117.50
2023-02-19T07:32:07.963Z,131.10
2023-02-19T07:33:42.931Z,129.30
2023-02-19T07:34:46.088Z,119.30
2023-02-19T07:35:49.031Z,131.10
2023-02-19T07:37:24.013Z,130.80
2023-02-19T07:38:27.120Z,119.50
2023-02-19T07:39:30.266Z,132.10
2023-02-19T07:41:05.266Z,131.70
2023-02-19T07:42:08.611Z,120.10
2023-02-19T07:43:11.629Z,133.50
2023-02-19T07:44:46.400Z,120.20
2023-02-19T07:45:52.524Z,133.10
2023-02-19T07:46:55.678Z,119.60
2023-02-19T07:48:30.904Z,133.70
2023-02-19T07:49:33.963Z,130.60
2023-02-19T07:50:37.092Z,122.10
2023-02-19T07:52:12.699Z,133.50
2023-02-19T07:53:15.573Z,119.10
2023-02-19T07:54:18.668Z,119.20
2023-02-19T07:55:53.595Z,132.40
2023-02-19T07:56:56.849Z,133.20
2023-02-19T07:57:59.841Z,133.40
2023-02-19T07:59:35.710Z,120.70
2023-02-19T08:00:28.977Z,133.10
2023-02-19T08:01:32.666Z,120.90
2023-02-19T08:02:35.633Z,120.80
2023-02-19T08:04:10.640Z,133.50
2023-02-19T08:05:14.053Z,120.80
2023-02-19T08:06:17.377Z,123.00
2023-02-19T08:07:52.401Z,121.10
2023-02-19T08:08:57.070Z,134.40
2023-02-19T08:10:00.178Z,134.40
2023-02-19T08:11:35.248Z,134.80
2023-02-19T08:12:38.726Z,122.80
2023-02-19T08:13:41.802Z,124.50
2023-02-19T08:15:16.805Z,123.20
2023-02-19T08:16:53.694Z,123.50
2023-02-19T08:17:57.147Z,120.50
2023-02-19T08:19:32.056Z,133.80
2023-02-19T08:20:35.059Z,134.70
2023-02-19T08:21:40.075Z,134.70
2023-02-19T08:23:15.051Z,124.40
2023-02-19T08:24:18.269Z,121.80
2023-02-19T08:25:21.269Z,125.90
2023-02-19T08:26:56.515Z,136.00
2023-02-19T08:27:59.412Z,137.20
2023-02-19T08:29:02.358Z,136.60
2023-02-19T08:30:38.069Z,122.40
2023-02-19T08:31:42.442Z,124.50
2023-02-19T08:32:45.955Z,135.60
2023-02-19T08:34:20.843Z,137.10
2023-02-19T08:35:23.871Z,137.20
2023-02-19T08:36:26.844Z,135.70
2023-02-19T08:38:01.651Z,125.30
2023-02-19T08:39:04.759Z,125.90
2023-02-19T08:40:07.948Z,127.80
2023-02-19T08:41:43.102Z,135.60
2023-02-19T08:42:45.984Z,123.30
2023-02-19T08:43:49.096Z,124.30
2023-02-19T08:45:24.126Z,136.10
2023-02-19T08:46:27.591Z,124.30
2023-02-19T08:47:32.116Z,126.00
2023-02-19T08:49:07.074Z,137.70
2023-02-19T08:50:10.142Z,135.80
2023-02-19T08:51:13.440Z,126.20
2023-02-19T08:52:48.611Z,123.30
2023-02-19T08:53:51.758Z,136.30
2023-02-19T08:54:55.281Z,134.50
2023-02-19T08:56:31.097Z,126.00
2023-02-19T08:57:34.098Z,127.00
2023-02-19T08:58:37.338Z,136.50
2023-02-19T09:00:29.048Z,126.00
2023-02-19T09:01:33.004Z,136.90
2023-02-19T09:02:36.721Z,137.10
2023-02-19T09:04:12.061Z,125.20
2023-02-19T09:05:15.126Z,126.40
2023-02-19T09:06:18.582Z,140.20
2023-02-19T09:07:53.431Z,136.40
2023-02-19T09:08:56.563Z,126.80
2023-02-19T09:09:59.694Z,137.00
2023-02-19T09:11:34.399Z,136.20
2023-02-19T09:12:40.247Z,135.60
2023-02-19T09:13:43.120Z,136.90
2023-02-19T09:15:18.140Z,139.10
2023-02-19T09:16:21.359Z,126.80
2023-02-19T09:17:24.580Z,128.30
2023-02-19T09:18:59.558Z,134.80
2023-02-19T09:20:02.574Z,127.60
2023-02-19T09:21:05.655Z,137.90
2023-02-19T09:22:40.984Z,127.00
2023-02-19T09:23:43.941Z,137.50
2023-02-19T09:24:46.990Z,135.60
2023-02-19T09:26:22.149Z,137.90
2023-02-19T09:27:25.345Z,126.00
2023-02-19T09:28:28.529Z,137.60
2023-02-19T09:30:03.339Z,139.70
2023-02-19T09:31:06.964Z,136.80
2023-02-19T09:32:11.304Z,137.80
2023-02-19T09:33:48.839Z,136.10
2023-02-19T09:34:51.916Z,139.40
2023-02-19T09:35:55.014Z,142.30
2023-02-19T09:37:29.885Z,127.30
2023-02-19T09:38:32.885Z,139.60
2023-02-19T09:39:36.104Z,138.20
2023-02-19T09:41:11.429Z,127.90
2023-02-19T09:42:14.841Z,129.70
2023-02-19T09:43:19.000Z,141.20
2023-02-19T09:44:54.162Z,130.40
2023-02-19T09:45:57.453Z,130.60
2023-02-19T09:47:00.406Z,143.50
2023-02-19T09:48:35.710Z,133.20
2023-02-19T09:49:38.488Z,145.30
2023-02-19T09:50:41.563Z,143.90
2023-02-19T09:52:16.415Z,130.50
2023-02-19T09:53:19.471Z,131.70
2023-02-19T09:54:22.304Z,144.80
2023-02-19T09:56:00.320Z,134.80
2023-02-19T09:57:03.733Z,136.30
2023-02-19T09:58:07.350Z,148.00
2023-02-19T09:59:42.321Z,153.80
2023-02-19T10:00:29.079Z,156.10
2023-02-19T10:01:32.136Z,156.00
2023-02-19T10:02:35.273Z,153.70
2023-02-19T10:04:10.075Z,145.20
2023-02-19T10:05:13.410Z,153.40
2023-02-19T10:06:17.168Z,154.20
2023-02-19T10:07:51.936Z,165.40
2023-02-19T10:08:54.960Z,142.00
2023-02-19T10:09:57.815Z,147.10
2023-02-19T10:11:32.851Z,150.10
2023-02-19T10:12:35.637Z,147.30
2023-02-19T10:13:38.830Z,135.10
2023-02-19T10:15:13.835Z,151.30
2023-02-19T10:16:17.069Z,145.50
2023-02-19T10:17:20.072Z,150.70
2023-02-19T10:18:55.274Z,140.50
2023-02-19T10:19:58.499Z,139.50
2023-02-19T10:21:01.461Z,146.00
2023-02-19T10:22:36.686Z,142.80
2023-02-19T10:23:39.701Z,145.80
2023-02-19T10:24:44.201Z,134.30
2023-02-19T10:26:19.079Z,127.30
2023-02-19T10:27:22.060Z,138.50
2023-02-19T10:28:24.925Z,129.40
2023-02-19T10:29:59.998Z,146.90
2023-02-19T10:31:03.290Z,145.60
2023-02-19T10:32:07.869Z,160.20
2023-02-19T10:33:42.994Z,143.60
2023-02-19T10:34:46.160Z,155.10
2023-02-19T10:35:48.914Z,142.10
2023-02-19T10:37:24.333Z,130.60
2023-02-19T10:38:27.348Z,136.00
2023-02-19T10:39:30.279Z,142.50
2023-02-19T10:41:05.638Z,146.80
2023-02-19T10:42:08.913Z,146.80
2023-02-19T10:43:11.988Z,140.70
2023-02-19T10:44:46.854Z,144.90
2023-02-19T10:45:49.781Z,141.20
2023-02-19T10:46:53.145Z,140.80
2023-02-19T10:48:28.039Z,143.20
2023-02-19T10:49:31.033Z,139.10
2023-02-19T10:50:33.872Z,136.30
2023-02-19T10:52:09.171Z,133.70
2023-02-19T10:53:12.184Z,134.30
2023-02-19T10:54:15.090Z,131.30
2023-02-19T10:55:50.154Z,141.70
2023-02-19T10:56:53.207Z,128.80
2023-02-19T10:57:56.418Z,128.60
2023-02-19T10:59:31.237Z,128.80
2023-02-19T11:00:29.029Z,142.00
2023-02-19T11:01:32.291Z,131.30
2023-02-19T11:02:35.459Z,142.00
2023-02-19T11:04:10.462Z,137.60
2023-02-19T11:05:13.597Z,141.80
2023-02-19T11:06:16.778Z,140.90
2023-02-19T11:07:51.882Z,156.20
2023-02-19T11:08:54.932Z,140.00
2023-02-19T11:09:58.052Z,138.90
2023-02-19T11:11:33.054Z,139.90
2023-02-19T11:12:36.451Z,138.40
2023-02-19T11:13:39.818Z,141.40
2023-02-19T11:15:14.712Z,146.00
2023-02-19T11:16:18.087Z,148.20
2023-02-19T11:17:21.345Z,147.10
2023-02-19T11:18:57.025Z,141.60
2023-02-19T11:20:00.378Z,136.00
2023-02-19T11:21:03.409Z,153.20
2023-02-19T11:22:39.062Z,149.80
2023-02-19T11:23:42.195Z,134.10
2023-02-19T11:24:45.241Z,136.80
2023-02-19T11:26:23.592Z,141.60
2023-02-19T11:27:26.419Z,150.20
2023-02-19T11:28:29.448Z,150.30
2023-02-19T11:30:04.450Z,143.00
2023-02-19T11:31:07.803Z,142.70
2023-02-19T11:32:12.257Z,128.80
2023-02-19T11:33:48.035Z,141.60
2023-02-19T11:34:50.982Z,142.40
2023-02-19T11:35:53.980Z,129.80
2023-02-19T11:37:31.845Z,141.60
2023-02-19T11:38:34.863Z,142.60
2023-02-19T11:39:37.875Z,137.70
2023-02-19T11:41:13.146Z,146.20
2023-02-19T11:42:16.178Z,149.40
2023-02-19T11:43:21.459Z,149.30
2023-02-19T11:44:56.357Z,146.10
2023-02-19T11:45:59.379Z,135.70
2023-02-19T11:47:02.724Z,147.50
2023-02-19T11:48:37.550Z,133.00
2023-02-19T11:49:40.654Z,132.80
2023-02-19T11:50:43.550Z,146.20
2023-02-19T11:52:18.431Z,138.10
2023-02-19T11:53:21.412Z,134.10
2023-02-19T11:54:24.558Z,132.20
2023-02-19T11:55:59.554Z,132.40
2023-02-19T11:57:02.561Z,132.10
2023-02-19T11:58:05.528Z,143.60
2023-02-19T11:59:40.442Z,141.10
2023-02-19T12:00:29.598Z,132.10
2023-02-19T12:01:32.739Z,146.60
2023-02-19T12:02:36.299Z,148.60
2023-02-19T12:04:11.276Z,151.00
2023-02-19T12:05:14.529Z,140.50
2023-02-19T12:06:18.243Z,135.40
2023-02-19T12:07:53.200Z,136.70
2023-02-19T12:08:56.295Z,144.30
2023-02-19T12:09:59.297Z,147.80
2023-02-19T12:11:34.189Z,154.30
2023-02-19T12:12:37.951Z,151.20
2023-02-19T12:13:40.921Z,148.10
2023-02-19T12:15:15.918Z,133.00
2023-02-19T12:16:19.351Z,133.40
2023-02-19T12:17:22.617Z,152.60
2023-02-19T12:18:57.320Z,136.70
2023-02-19T12:20:00.593Z,151.50
2023-02-19T12:21:03.949Z,146.60
2023-02-19T12:22:39.446Z,144.60
2023-02-19T12:23:42.496Z,134.80
2023-02-19T12:24:45.528Z,144.20
2023-02-19T12:26:21.035Z,155.80
2023-02-19T12:27:23.829Z,140.20
2023-02-19T12:28:26.998Z,146.50
2023-02-19T12:30:01.897Z,137.90
2023-02-19T12:31:05.408Z,151.20
2023-02-19T12:32:09.120Z,139.60
2023-02-19T12:33:44.259Z,135.50
2023-02-19T12:34:47.334Z,137.50
2023-02-19T12:35:50.611Z,139.10
2023-02-19T12:37:25.492Z,147.10
2023-02-19T12:38:28.898Z,149.10
2023-02-19T12:39:32.132Z,146.70
2023-02-19T12:41:06.911Z,146.60
2023-02-19T12:42:10.097Z,140.80
2023-02-19T12:43:13.474Z,149.40
2023-02-19T12:44:48.450Z,135.90
2023-02-19T12:45:51.675Z,145.80
2023-02-19T12:46:55.198Z,135.80
2023-02-19T12:48:30.111Z,144.70
2023-02-19T12:49:32.923Z,135.60
2023-02-19T12:50:38.991Z,131.80
2023-02-19T12:52:13.928Z,130.90
2023-02-19T12:53:17.067Z,142.80
2023-02-19T12:54:19.958Z,131.60
2023-02-19T12:55:57.936Z,132.00
2023-02-19T12:57:01.417Z,147.50
2023-02-19T12:58:04.800Z,135.70
2023-02-19T12:59:40.022Z,144.90
2023-02-19T13:00:29.147Z,137.60
2023-02-19T13:01:32.948Z,134.20
2023-02-19T13:02:36.538Z,145.70
2023-02-19T13:04:11.496Z,137.30
2023-02-19T13:05:14.416Z,138.90
2023-02-19T13:06:21.252Z,145.20
2023-02-19T13:07:56.198Z,142.90
2023-02-19T13:09:22.646Z,135.50
2023-02-19T13:10:25.671Z,147.90
2023-02-19T13:12:01.147Z,156.90
2023-02-19T13:13:04.050Z,148.10
2023-02-19T13:14:07.131Z,150.50
2023-02-19T13:15:42.286Z,146.40
2023-02-19T13:16:45.611Z,131.70
2023-02-19T13:17:48.700Z,128.30
2023-02-19T13:19:25.890Z,144.00
2023-02-19T13:20:28.958Z,145.00
2023-02-19T13:21:33.547Z,146.40
2023-02-19T13:23:09.930Z,146.10
2023-02-19T13:24:12.787Z,147.60
2023-02-19T13:25:15.818Z,147.80
2023-02-19T13:26:52.575Z,139.40
2023-02-19T13:27:58.662Z,138.80
2023-02-19T13:29:01.767Z,149.00
2023-02-19T13:30:37.141Z,155.80
2023-02-19T13:31:41.320Z,153.80
2023-02-19T13:32:44.636Z,152.20
2023-02-19T13:34:19.489Z,140.20
2023-02-19T13:35:23.045Z,139.20
2023-02-19T13:36:26.016Z,148.50
2023-02-19T13:38:01.192Z,152.40
2023-02-19T13:39:04.038Z,149.00
2023-02-19T13:40:07.006Z,145.80
2023-02-19T13:41:42.044Z,140.40
2023-02-19T13:42:45.019Z,190.90
2023-02-19T13:43:48.239Z,248.60
2023-02-19T13:45:23.544Z,251.70
2023-02-19T13:46:26.826Z,166.40
2023-02-19T13:47:29.904Z,163.80
2023-02-19T13:49:04.779Z,139.90
2023-02-19T13:50:08.331Z,141.40
2023-02-19T13:51:11.767Z,148.10
2023-02-19T13:52:47.111Z,181.00
2023-02-19T13:53:50.070Z,181.00
2023-02-19T13:54:53.035Z,165.20
2023-02-19T13:56:28.011Z,179.50
2023-02-19T13:57:31.071Z,246.30
2023-02-19T13:58:34.077Z,247.20
2023-02-19T14:00:28.659Z,154.90
2023-02-19T14:01:32.205Z,140.20
2023-02-19T14:02:35.464Z,145.50
2023-02-19T14:04:10.788Z,135.70
2023-02-19T14:05:13.791Z,138.90
2023-02-19T14:06:16.668Z,159.60
2023-02-19T14:07:52.538Z,167.80
2023-02-19T14:08:55.404Z,147.00
2023-02-19T14:09:58.408Z,145.00
2023-02-19T14:11:33.049Z,141.50
2023-02-19T14:12:36.168Z,172.50
2023-02-19T14:13:39.206Z,166.10
2023-02-19T14:15:14.244Z,149.90
2023-02-19T14:16:17.690Z,139.20
2023-02-19T14:17:20.658Z,149.20
2023-02-19T14:18:55.719Z,150.00
2023-02-19T14:19:58.677Z,145.50
2023-02-19T14:21:02.015Z,144.00
2023-02-19T14:22:37.290Z,152.40
2023-02-19T14:23:40.600Z,140.60
2023-02-19T14:24:44.456Z,152.10
2023-02-19T14:26:19.326Z,146.50
2023-02-19T14:27:22.446Z,141.50
2023-02-19T14:28:25.441Z,157.80
2023-02-19T14:30:00.621Z,150.10
2023-02-19T14:31:04.126Z,152.20
2023-02-19T14:32:10.347Z,148.80
2023-02-19T14:34:02.887Z,137.10
2023-02-19T14:35:05.937Z,142.60
2023-02-19T14:36:09.185Z,145.30
2023-02-19T14:37:44.197Z,142.80
2023-02-19T14:38:47.408Z,140.20
2023-02-19T14:39:50.455Z,143.60
2023-02-19T14:41:25.762Z,142.60
2023-02-19T14:42:28.937Z,136.90
2023-02-19T14:43:31.838Z,153.80
2023-02-19T14:45:06.812Z,149.10
2023-02-19T14:46:10.032Z,148.60
2023-02-19T14:47:12.947Z,135.90
2023-02-19T14:48:48.259Z,143.40
2023-02-19T14:49:51.208Z,134.70
2023-02-19T14:50:54.426Z,138.40
2023-02-19T14:52:29.474Z,149.90
2023-02-19T14:53:32.469Z,149.20
2023-02-19T14:54:35.974Z,139.90
2023-02-19T14:56:11.332Z,134.60
2023-02-19T14:57:14.265Z,144.10
2023-02-19T14:58:17.481Z,133.20
2023-02-19T14:59:52.613Z,147.00
2023-02-19T15:00:31.137Z,147.00
2023-02-19T15:01:34.452Z,145.40
2023-02-19T15:02:37.527Z,139.90
2023-02-19T15:04:12.569Z,146.90
2023-02-19T15:05:16.104Z,145.20
2023-02-19T15:06:19.334Z,133.00
2023-02-19T15:07:54.496Z,134.00
2023-02-19T15:08:57.541Z,129.60
2023-02-19T15:10:02.938Z,132.80
2023-02-19T15:11:39.530Z,131.50
2023-02-19T15:12:42.659Z,138.20
2023-02-19T15:13:45.705Z,134.00
2023-02-19T15:15:20.740Z,139.80
2023-02-19T15:16:25.704Z,147.30
2023-02-19T15:17:29.158Z,147.60
2023-02-19T15:19:04.066Z,147.60